Time;durP1;ratioP1;P1;durP2;ratioP2;P2;SDS_P1;SDS_P2;PMS_P1;PMS_P2;Temp;Humidity;BMP_temperature;BMP_pressure;BME280_temperature;BME280_humidity;BME280_pressure;Samples;Min_cycle;Max_cycle;Signal;HPM_P1;HPM_P2
2022/04/03 00:00:03;;;;;;;0.30;0.30;;;;;;;;;;6349111;22;20197;-76
2022/04/03 00:02:29;;;;;;;0.30;0.30;;;;;;;;;;6332173;22;20284;-78
2022/04/03 00:04:57;;;;;;;0.30;0.30;;;;;;;;;;6349647;22;20355;-78
2022/04/03 00:07:24;;;;;;;0.30;0.30;;;;;;;;;;6332493;22;20260;-77
2022/04/03 00:09:51;;;;;;;0.20;0.20;;;;;;;;;;6349558;22;20396;-78
2022/04/03 00:12:17;;;;;;;0.20;0.20;;;;;;;;;;6332555;22;20209;-77
2022/04/03 00:14:43;;;;;;;0.30;0.30;;;;;;;;;;6349212;22;20197;-78
2022/04/03 00:17:10;;;;;;;0.30;0.30;;;;;;;;;;6331562;22;20227;-78
2022/04/03 00:19:38;;;;;;;0.30;0.30;;;;;;;;;;6349121;22;20237;-78
2022/04/03 00:22:06;;;;;;;0.30;0.30;;;;;;;;;;6332145;22;20209;-79
2022/04/03 00:24:33;;;;;;;0.30;0.30;;;;;;;;;;6349780;22;20178;-77
2022/04/03 00:26:59;;;;;;;0.30;0.30;;;;;;;;;;6332348;22;20209;-77
2022/04/03 00:29:26;;;;;;;0.30;0.30;;;;;;;;;;6349786;22;20431;-78
2022/04/03 00:31:52;;;;;;;0.30;0.30;;;;;;;;;;6332438;22;20215;-77
2022/04/03 00:34:18;;;;;;;0.30;0.30;;;;;;;;;;6349398;22;20175;-78
2022/04/03 00:36:45;;;;;;;0.30;0.30;;;;;;;;;;6331920;22;20209;-78
2022/04/03 00:39:13;;;;;;;0.30;0.30;;;;;;;;;;6348733;22;20231;-78
2022/04/03 00:41:39;;;;;;;0.30;0.30;;;;;;;;;;6332262;22;20278;-78
2022/04/03 00:44:06;;;;;;;0.30;0.30;;;;;;;;;;6348681;22;20232;-78
2022/04/03 00:46:36;;;;;;;0.30;0.30;;;;;;;;;;6332225;22;20296;-77
2022/04/03 00:49:03;;;;;;;0.30;0.30;;;;;;;;;;6348503;22;20219;-77
2022/04/03 00:51:32;;;;;;;0.30;0.30;;;;;;;;;;6330305;22;20219;-78
2022/04/03 00:53:59;;;;;;;0.30;0.30;;;;;;;;;;6348494;22;20210;-79
2022/04/03 00:56:31;;;;;;;0.30;0.30;;;;;;;;;;6333225;22;20216;-78
2022/04/03 00:58:58;;;;;;;0.30;0.30;;;;;;;;;;6348159;22;20192;-78
2022/04/03 01:01:24;;;;;;;0.30;0.30;;;;;;;;;;6332157;22;20258;-77
2022/04/03 01:03:50;;;;;;;0.30;0.30;;;;;;;;;;6348828;22;20254;-78
2022/04/03 01:06:17;;;;;;;0.30;0.30;;;;;;;;;;6332430;22;20266;-78
2022/04/03 01:08:43;;;;;;;0.30;0.30;;;;;;;;;;6348953;22;20465;-78
2022/04/03 01:11:11;;;;;;;0.30;0.30;;;;;;;;;;6332671;22;20572;-77
2022/04/03 01:13:46;;;;;;;0.30;0.30;;;;;;;;;;6348129;22;20170;-78
2022/04/03 01:16:13;;;;;;;0.30;0.30;;;;;;;;;;6332463;22;20255;-78
2022/04/03 01:18:39;;;;;;;0.30;0.30;;;;;;;;;;6348485;22;20184;-77
2022/04/03 01:21:05;;;;;;;0.30;0.30;;;;;;;;;;6331610;22;20460;-78
2022/04/03 01:23:32;;;;;;;0.30;0.30;;;;;;;;;;6348351;22;20310;-75
2022/04/03 01:26:00;;;;;;;0.30;0.30;;;;;;;;;;6332590;22;20209;-78
2022/04/03 01:28:27;;;;;;;0.23;0.23;;;;;;;;;;6348162;22;20245;-76
2022/04/03 01:30:53;;;;;;;0.30;0.30;;;;;;;;;;6331378;22;20220;-79
2022/04/03 01:33:20;;;;;;;0.30;0.30;;;;;;;;;;6321255;22;20512;-78
2022/04/03 01:35:46;;;;;;;0.30;0.30;;;;;;;;;;6332072;22;20221;-77
2022/04/03 01:38:13;;;;;;;0.30;0.30;;;;;;;;;;6347337;22;20416;-79
2022/04/03 01:40:39;;;;;;;0.30;0.30;;;;;;;;;;6332469;22;20215;-77
2022/04/03 01:43:08;;;;;;;0.30;0.30;;;;;;;;;;6347858;22;20508;-78
2022/04/03 01:45:34;;;;;;;0.30;0.30;;;;;;;;;;6332101;22;20217;-78
2022/04/03 01:48:01;;;;;;;0.30;0.30;;;;;;;;;;6347229;22;20398;-78
2022/04/03 01:50:27;;;;;;;0.30;0.30;;;;;;;;;;6332527;22;20220;-76
2022/04/03 01:52:54;;;;;;;0.30;0.30;;;;;;;;;;6347588;22;20188;-78
2022/04/03 01:55:21;;;;;;;0.30;0.30;;;;;;;;;;6332633;22;20177;-78
2022/04/03 01:57:47;;;;;;;0.30;0.30;;;;;;;;;;6347058;22;20196;-78
2022/04/03 02:00:16;;;;;;;0.30;0.30;;;;;;;;;;6332453;22;20173;-78
2022/04/03 02:02:42;;;;;;;0.30;0.30;;;;;;;;;;6347132;22;20182;-77
2022/04/03 02:05:09;;;;;;;0.30;0.30;;;;;;;;;;6332233;22;20488;-76
2022/04/03 02:07:36;;;;;;;0.30;0.30;;;;;;;;;;6346858;22;20515;-77
2022/04/03 02:10:02;;;;;;;0.30;0.30;;;;;;;;;;6348168;22;20232;-78
2022/04/03 02:12:31;;;;;;;0.30;0.30;;;;;;;;;;6330997;22;20220;-77
2022/04/03 02:14:57;;;;;;;0.30;0.30;;;;;;;;;;6348459;22;20211;-78
2022/04/03 02:17:26;;;;;;;0.30;0.30;;;;;;;;;;6330824;22;20255;-77
2022/04/03 02:19:53;;;;;;;0.30;0.30;;;;;;;;;;6348579;22;20181;-77
2022/04/03 02:22:20;;;;;;;0.30;0.30;;;;;;;;;;6331045;22;20212;-77
2022/04/03 02:24:46;;;;;;;8.63;8.20;;;;;;;;;;6348508;22;20493;-77
2022/04/03 02:27:13;;;;;;;0.30;0.30;;;;;;;;;;6331305;22;20266;-79
2022/04/03 02:29:40;;;;;;;0.30;0.30;;;;;;;;;;6348389;22;20239;-78
2022/04/03 02:32:07;;;;;;;0.30;0.30;;;;;;;;;;6331044;22;20204;-76
2022/04/03 02:34:35;;;;;;;0.30;0.30;;;;;;;;;;6348248;22;20473;-78
2022/04/03 02:37:01;;;;;;;0.23;0.23;;;;;;;;;;6330870;22;20257;-77
2022/04/03 02:39:28;;;;;;;0.30;0.30;;;;;;;;;;6348614;22;20169;-78
2022/04/03 02:41:54;;;;;;;0.30;0.30;;;;;;;;;;6331110;22;20211;-77
2022/04/03 02:44:20;;;;;;;0.30;0.30;;;;;;;;;;6347928;22;20169;-77
2022/04/03 02:46:47;;;;;;;0.30;0.30;;;;;;;;;;6330954;22;20240;-78
2022/04/03 02:49:13;;;;;;;0.30;0.30;;;;;;;;;;6349477;22;20180;-78
2022/04/03 02:51:41;;;;;;;0.30;0.30;;;;;;;;;;6332691;22;20231;-78
2022/04/03 02:54:07;;;;;;;0.50;0.50;;;;;;;;;;6349742;22;20404;-77
2022/04/03 02:56:34;;;;;;;0.53;0.53;;;;;;;;;;6333805;22;20216;-77
2022/04/03 02:59:00;;;;;;;0.30;0.30;;;;;;;;;;6350937;22;20248;-77
2022/04/03 03:01:26;;;;;;;0.30;0.30;;;;;;;;;;6333769;22;20278;-78
2022/04/03 03:03:53;;;;;;;0.30;0.30;;;;;;;;;;6350199;22;20184;-79
2022/04/03 03:06:19;;;;;;;0.30;0.30;;;;;;;;;;6333199;22;20209;-77
2022/04/03 03:08:47;;;;;;;0.30;0.30;;;;;;;;;;6349189;22;20169;-78
2022/04/03 03:11:15;;;;;;;0.30;0.30;;;;;;;;;;6333259;22;20280;-78
2022/04/03 03:13:41;;;;;;;0.30;0.30;;;;;;;;;;6349082;22;20243;-78
2022/04/03 03:16:08;;;;;;;0.30;0.30;;;;;;;;;;6334590;22;20460;-78
2022/04/03 03:18:34;;;;;;;0.30;0.30;;;;;;;;;;6349509;22;20177;-77
2022/04/03 03:21:01;;;;;;;0.27;0.27;;;;;;;;;;6333984;22;20201;-76
2022/04/03 03:23:27;;;;;;;0.30;0.30;;;;;;;;;;6351349;22;20169;-76
2022/04/03 03:26:02;;;;;;;0.30;0.30;;;;;;;;;;6336703;22;20216;-77
2022/04/03 03:28:28;;;;;;;0.30;0.30;;;;;;;;;;6354514;22;20326;-78
2022/04/03 03:30:55;;;;;;;0.20;0.20;;;;;;;;;;6338675;22;20205;-77
2022/04/03 03:33:21;;;;;;;0.23;0.23;;;;;;;;;;6354354;22;20183;-77
2022/04/03 03:35:48;;;;;;;0.30;0.30;;;;;;;;;;6337241;22;20216;-78
2022/04/03 03:38:14;;;;;;;0.30;0.30;;;;;;;;;;6352173;22;20507;-77
2022/04/03 03:40:41;;;;;;;0.60;0.60;;;;;;;;;;6336322;22;20457;-79
2022/04/03 03:43:09;;;;;;;0.30;0.30;;;;;;;;;;6351857;22;20193;-77
2022/04/03 03:45:36;;;;;;;0.30;0.30;;;;;;;;;;6339181;22;20209;-78
2022/04/03 03:48:03;;;;;;;0.30;0.30;;;;;;;;;;6353488;22;20284;-78
2022/04/03 03:50:29;;;;;;;0.23;0.23;;;;;;;;;;6338640;22;20208;-77
2022/04/03 03:52:55;;;;;;;0.30;0.30;;;;;;;;;;6353229;22;20162;-77
2022/04/03 03:55:22;;;;;;;0.30;0.30;;;;;;;;;;6337601;22;20218;-77
2022/04/03 03:57:49;;;;;;;0.30;0.30;;;;;;;;;;6354119;22;20229;-77
2022/04/03 04:00:18;;;;;;;0.30;0.30;;;;;;;;;;6336910;22;20177;-77
2022/04/03 04:02:44;;;;;;;0.20;0.20;;;;;;;;;;6351013;22;20213;-77
2022/04/03 04:05:11;;;;;;;0.30;0.30;;;;;;;;;;6335714;22;20238;-77
2022/04/03 04:07:41;;;;;;;0.20;0.20;;;;;;;;;;6350683;22;20498;-77
2022/04/03 04:10:07;;;;;;;0.30;0.30;;;;;;;;;;6336347;22;20193;-77
2022/04/03 04:12:34;;;;;;;0.30;0.30;;;;;;;;;;6351019;22;20173;-79
2022/04/03 04:15:03;;;;;;;0.30;0.30;;;;;;;;;;6351868;22;20207;-78
2022/04/03 04:17:35;;;;;;;0.30;0.30;;;;;;;;;;6308627;22;20197;-77
2022/04/03 04:20:02;;;;;;;0.30;0.30;;;;;;;;;;6323162;22;20184;-77
2022/04/03 04:22:28;;;;;;;0.30;0.30;;;;;;;;;;6332669;22;20212;-77
2022/04/03 04:24:54;;;;;;;0.30;0.30;;;;;;;;;;6349684;22;20177;-78
2022/04/03 04:27:21;;;;;;;0.30;0.30;;;;;;;;;;6332642;22;20209;-77
2022/04/03 04:29:47;;;;;;;0.20;0.20;;;;;;;;;;6349993;22;20348;-78
2022/04/03 04:32:14;;;;;;;0.20;0.20;;;;;;;;;;6332525;22;20204;-78
2022/04/03 04:34:41;;;;;;;0.23;0.23;;;;;;;;;;6349832;22;20215;-77
2022/04/03 04:37:08;;;;;;;0.30;0.30;;;;;;;;;;6332414;22;20208;-76
2022/04/03 04:39:34;;;;;;;0.40;0.40;;;;;;;;;;6349309;22;20185;-78
2022/04/03 04:42:00;;;;;;;0.30;0.30;;;;;;;;;;6332205;22;20425;-77
2022/04/03 04:44:27;;;;;;;0.30;0.30;;;;;;;;;;6349464;22;20229;-77
2022/04/03 04:46:53;;;;;;;0.30;0.30;;;;;;;;;;6332277;22;20244;-78
2022/04/03 04:49:20;;;;;;;0.30;0.30;;;;;;;;;;6349651;22;20177;-76
2022/04/03 04:51:48;;;;;;;0.20;0.20;;;;;;;;;;6332460;22;20411;-78
2022/04/03 04:54:14;;;;;;;0.30;0.30;;;;;;;;;;6349538;22;20177;-77
2022/04/03 04:56:41;;;;;;;0.20;0.20;;;;;;;;;;6332942;22;20215;-78
2022/04/03 04:59:07;;;;;;;0.20;0.20;;;;;;;;;;6348939;22;20175;-78
2022/04/03 05:01:34;;;;;;;0.20;0.20;;;;;;;;;;6332467;22;20205;-78
2022/04/03 05:04:00;;;;;;;0.30;0.30;;;;;;;;;;6348540;22;20374;-77
2022/04/03 05:06:27;;;;;;;0.20;0.20;;;;;;;;;;6332072;22;20216;-77
2022/04/03 05:08:55;;;;;;;0.30;0.30;;;;;;;;;;6348436;22;20178;-78
2022/04/03 05:11:22;;;;;;;0.30;0.30;;;;;;;;;;6332154;22;20208;-78
2022/04/03 05:13:48;;;;;;;0.30;0.30;;;;;;;;;;6348371;22;20177;-77
2022/04/03 05:16:15;;;;;;;0.30;0.30;;;;;;;;;;6332526;22;20209;-77
2022/04/03 05:18:41;;;;;;;0.30;0.30;;;;;;;;;;6348428;22;20177;-77
2022/04/03 05:21:08;;;;;;;0.20;0.20;;;;;;;;;;6332832;22;20209;-78
2022/04/03 05:23:35;;;;;;;0.30;0.30;;;;;;;;;;6348893;22;20207;-77
2022/04/03 05:26:04;;;;;;;0.20;0.20;;;;;;;;;;6332621;22;20215;-78
2022/04/03 05:28:30;;;;;;;0.20;0.20;;;;;;;;;;6348283;22;20180;-76
2022/04/03 05:30:56;;;;;;;0.30;0.30;;;;;;;;;;6333282;22;20295;-76
2022/04/03 05:33:23;;;;;;;0.30;0.30;;;;;;;;;;6348094;22;20173;-76
2022/04/03 05:35:50;;;;;;;0.23;0.23;;;;;;;;;;6332460;22;20215;-78
2022/04/03 05:38:17;;;;;;;0.30;0.30;;;;;;;;;;6347851;22;20215;-77
2022/04/03 05:40:43;;;;;;;0.23;0.23;;;;;;;;;;6332823;22;20209;-77
2022/04/03 05:43:11;;;;;;;0.30;0.30;;;;;;;;;;6347623;22;20535;-78
2022/04/03 05:45:38;;;;;;;0.30;0.30;;;;;;;;;;6332168;22;20392;-77
2022/04/03 05:48:05;;;;;;;0.93;0.93;;;;;;;;;;6347474;22;20181;-79
2022/04/03 05:50:31;;;;;;;0.20;0.20;;;;;;;;;;6332517;22;20272;-77
2022/04/03 05:52:58;;;;;;;0.20;0.20;;;;;;;;;;6347172;22;20173;-78
2022/04/03 05:55:24;;;;;;;0.30;0.30;;;;;;;;;;6305061;22;20178;-78
2022/04/03 05:57:52;;;;;;;0.30;0.30;;;;;;;;;;6347296;22;20271;-78
2022/04/03 06:00:22;;;;;;;0.30;0.30;;;;;;;;;;6332764;22;20183;-78
2022/04/03 06:02:52;;;;;;;0.20;0.20;;;;;;;;;;6347161;22;20197;-77
2022/04/03 06:05:20;;;;;;;0.30;0.30;;;;;;;;;;6332674;22;20332;-78
2022/04/03 06:07:46;;;;;;;0.30;0.30;;;;;;;;;;6347515;22;20223;-78
2022/04/03 06:10:14;;;;;;;0.20;0.20;;;;;;;;;;6331321;22;20181;-77
2022/04/03 06:12:54;;;;;;;0.27;0.27;;;;;;;;;;6347212;22;20185;-78
2022/04/03 06:15:22;;;;;;;0.20;0.20;;;;;;;;;;6332459;22;20234;-77
2022/04/03 06:17:49;;;;;;;0.20;0.20;;;;;;;;;;6347325;22;20184;-78
2022/04/03 06:20:16;;;;;;;0.30;0.30;;;;;;;;;;6332431;22;20203;-77
2022/04/03 06:22:42;;;;;;;0.20;0.20;;;;;;;;;;6346946;22;20204;-78
2022/04/03 06:25:22;;;;;;;0.20;0.20;;;;;;;;;;6332187;22;20181;-78
2022/04/03 06:27:48;;;;;;;0.20;0.20;;;;;;;;;;6346870;22;20181;-78
2022/04/03 06:30:15;;;;;;;0.30;0.30;;;;;;;;;;6332683;22;20181;-78
2022/04/03 06:32:43;;;;;;;0.20;0.20;;;;;;;;;;6347239;22;20162;-77
2022/04/03 06:35:09;;;;;;;0.30;0.30;;;;;;;;;;6332146;22;20201;-77
2022/04/03 06:37:36;;;;;;;0.20;0.20;;;;;;;;;;6346655;22;20376;-78
2022/04/03 06:40:05;;;;;;;0.27;0.27;;;;;;;;;;6348126;22;20199;-77
2022/04/03 06:42:32;;;;;;;0.30;0.30;;;;;;;;;;6303959;22;20261;-78
2022/04/03 06:44:58;;;;;;;0.30;0.30;;;;;;;;;;6348477;22;20236;-78
2022/04/03 06:47:25;;;;;;;0.27;0.27;;;;;;;;;;6331017;22;20272;-78
2022/04/03 06:49:54;;;;;;;0.20;0.20;;;;;;;;;;6348167;22;20184;-78
2022/04/03 06:52:20;;;;;;;0.20;0.20;;;;;;;;;;6331020;22;20215;-77
2022/04/03 06:54:46;;;;;;;0.20;0.20;;;;;;;;;;6348333;22;20239;-78
2022/04/03 06:57:13;;;;;;;0.30;0.30;;;;;;;;;;6330211;22;20261;-79
2022/04/03 06:59:40;;;;;;;0.20;0.20;;;;;;;;;;6347780;22;20177;-78
2022/04/03 07:02:07;;;;;;;0.20;0.20;;;;;;;;;;6330867;22;20201;-77
2022/04/03 07:04:34;;;;;;;0.10;0.10;;;;;;;;;;6349576;22;20232;-78
2022/04/03 07:07:04;;;;;;;0.20;0.20;;;;;;;;;;6333494;22;20523;-78
2022/04/03 07:09:31;;;;;;;0.20;0.20;;;;;;;;;;6347969;22;20255;-79
2022/04/03 07:11:57;;;;;;;0.20;0.20;;;;;;;;;;6330517;22;20509;-78
2022/04/03 07:14:24;;;;;;;0.20;0.20;;;;;;;;;;6347947;22;20224;-78
2022/04/03 07:16:51;;;;;;;0.10;0.10;;;;;;;;;;6331046;22;20209;-79
2022/04/03 07:19:17;;;;;;;0.10;0.10;;;;;;;;;;6347617;22;20172;-79
2022/04/03 07:21:43;;;;;;;0.10;0.10;;;;;;;;;;6330570;22;20220;-78
2022/04/03 07:24:11;;;;;;;0.10;0.10;;;;;;;;;;6347790;22;20183;-78
2022/04/03 07:26:37;;;;;;;0.10;0.10;;;;;;;;;;6330474;22;20272;-76
2022/04/03 07:29:04;;;;;;;0.10;0.10;;;;;;;;;;6347149;22;20551;-78
2022/04/03 07:31:32;;;;;;;0.20;0.20;;;;;;;;;;6331106;22;20276;-80
2022/04/03 07:33:58;;;;;;;0.10;0.10;;;;;;;;;;6347465;22;20196;-77
2022/04/03 07:36:25;;;;;;;0.10;0.10;;;;;;;;;;6331197;22;20218;-78
2022/04/03 07:38:52;;;;;;;0.20;0.20;;;;;;;;;;6346594;22;20189;-75
2022/04/03 07:41:20;;;;;;;0.10;0.10;;;;;;;;;;6331121;22;20219;-78
2022/04/03 07:43:47;;;;;;;0.10;0.10;;;;;;;;;;6347431;22;20201;-78
2022/04/03 07:46:16;;;;;;;0.10;0.10;;;;;;;;;;6331047;22;20212;-78
2022/04/03 07:48:44;;;;;;;0.20;0.20;;;;;;;;;;6347030;22;20188;-79
2022/04/03 07:51:11;;;;;;;0.20;0.20;;;;;;;;;;6330904;22;20268;-77
2022/04/03 07:53:39;;;;;;;0.10;0.10;;;;;;;;;;6346900;22;20179;-79
2022/04/03 07:56:07;;;;;;;0.20;0.20;;;;;;;;;;6331039;22;20595;-78
2022/04/03 07:58:34;;;;;;;0.20;0.20;;;;;;;;;;6346637;22;20185;-76
2022/04/03 08:01:03;;;;;;;1.17;1.17;;;;;;;;;;6331546;22;20390;-76
2022/04/03 08:03:29;;;;;;;0.20;0.20;;;;;;;;;;6347450;22;20205;-77
2022/04/03 08:05:55;;;;;;;0.20;0.20;;;;;;;;;;6331699;22;20216;-78
2022/04/03 08:08:22;;;;;;;0.20;0.20;;;;;;;;;;6347785;22;20317;-76
2022/04/03 08:10:49;;;;;;;0.20;0.20;;;;;;;;;;6333901;22;20601;-76
2022/04/03 08:13:16;;;;;;;0.20;0.20;;;;;;;;;;6349552;22;20453;-77
2022/04/03 08:15:43;;;;;;;0.60;0.60;;;;;;;;;;6334431;22;20270;-76
2022/04/03 08:18:10;;;;;;;0.20;0.20;;;;;;;;;;6349402;22;20227;-77
2022/04/03 08:20:38;;;;;;;0.20;0.20;;;;;;;;;;6334530;22;20398;-76
2022/04/03 08:23:05;;;;;;;0.43;0.43;;;;;;;;;;6350146;22;20511;-77
2022/04/03 08:25:32;;;;;;;0.20;0.20;;;;;;;;;;6336335;22;20443;-76
2022/04/03 08:27:59;;;;;;;0.20;0.20;;;;;;;;;;6350203;22;20169;-76
2022/04/03 08:30:27;;;;;;;0.20;0.20;;;;;;;;;;6307746;22;20262;-76
2022/04/03 08:32:58;;;;;;;0.20;0.20;;;;;;;;;;6352260;22;20185;-77
2022/04/03 08:35:26;;;;;;;0.20;0.20;;;;;;;;;;6334371;22;20644;-76
2022/04/03 08:37:53;;;;;;;0.20;0.20;;;;;;;;;;6348378;22;20358;-75
2022/04/03 08:40:20;;;;;;;0.20;0.20;;;;;;;;;;6334913;22;20246;-77
2022/04/03 08:42:46;;;;;;;0.20;0.20;;;;;;;;;;6349627;22;20199;-76
2022/04/03 08:45:13;;;;;;;0.20;0.20;;;;;;;;;;6335445;22;20177;-76
2022/04/03 08:47:46;;;;;;;0.20;0.20;;;;;;;;;;6349459;22;20185;-76
2022/04/03 08:50:15;;;;;;;0.20;0.20;;;;;;;;;;6335012;22;20167;-76
2022/04/03 08:52:46;;;;;;;0.10;0.10;;;;;;;;;;6348854;22;20177;-76
2022/04/03 08:55:12;;;;;;;0.20;0.20;;;;;;;;;;6333949;22;20188;-75
2022/04/03 08:57:39;;;;;;;0.20;0.20;;;;;;;;;;6347942;22;20226;-75
2022/04/03 09:00:07;;;;;;;0.17;0.17;;;;;;;;;;6341059;22;20204;-75
2022/04/03 09:02:34;;;;;;;0.10;0.10;;;;;;;;;;6346943;22;20177;-77
2022/04/03 09:05:03;;;;;;;0.20;0.20;;;;;;;;;;6348446;22;20177;-73
2022/04/03 09:07:31;;;;;;;0.20;0.20;;;;;;;;;;6331591;22;20210;-76
2022/04/03 09:09:58;;;;;;;0.20;0.20;;;;;;;;;;6348428;22;20188;-74
2022/04/03 09:12:27;;;;;;;0.20;0.20;;;;;;;;;;6331258;22;20212;-74
2022/04/03 09:14:54;;;;;;;0.10;0.10;;;;;;;;;;6348712;22;20220;-75
2022/04/03 09:17:32;;;;;;;0.43;0.43;;;;;;;;;;6330141;22;20223;-77
2022/04/03 09:20:01;;;;;;;0.10;0.10;;;;;;;;;;6348406;22;20222;-74
2022/04/03 09:22:28;;;;;;;0.10;0.10;;;;;;;;;;6330307;22;20218;-74
2022/04/03 09:24:56;;;;;;;0.10;0.10;;;;;;;;;;6347976;22;20180;-74
2022/04/03 09:27:26;;;;;;;0.10;0.10;;;;;;;;;;6330360;22;20219;-74
2022/04/03 09:30:04;;;;;;;0.13;0.13;;;;;;;;;;6348893;22;20334;-73
2022/04/03 09:32:30;;;;;;;0.10;0.10;;;;;;;;;;6305299;22;20421;-76
2022/04/03 09:34:58;;;;;;;0.20;0.20;;;;;;;;;;6348582;22;20400;-74
2022/04/03 09:37:24;;;;;;;0.10;0.10;;;;;;;;;;6331483;22;20364;-74
2022/04/03 09:39:51;;;;;;;0.10;0.10;;;;;;;;;;6348606;22;20376;-74
2022/04/03 09:42:19;;;;;;;0.10;0.10;;;;;;;;;;6329806;22;20209;-74
2022/04/03 09:44:46;;;;;;;0.10;0.10;;;;;;;;;;6348305;22;20227;-73
2022/04/03 09:47:17;;;;;;;0.10;0.10;;;;;;;;;;6331052;22;20219;-75
2022/04/03 09:49:44;;;;;;;0.10;0.10;;;;;;;;;;6348296;22;20180;-75
2022/04/03 09:52:11;;;;;;;0.10;0.10;;;;;;;;;;6330469;22;20209;-76
2022/04/03 09:54:39;;;;;;;0.10;0.10;;;;;;;;;;6348621;22;20173;-76
2022/04/03 09:57:29;;;;;;;0.10;0.10;;;;;;;;;;6331328;22;20208;-75
2022/04/03 09:59:57;;;;;;;0.10;0.10;;;;;;;;;;6324851;22;20240;-74
2022/04/03 10:02:25;;;;;;;0.10;0.10;;;;;;;;;;6326858;22;20235;-74
2022/04/03 10:04:52;;;;;;;0.10;0.10;;;;;;;;;;6348752;22;20205;-74
2022/04/03 10:07:20;;;;;;;0.10;0.10;;;;;;;;;;6330960;22;20212;-75
2022/04/03 10:09:50;;;;;;;0.20;0.20;;;;;;;;;;6348032;22;20213;-77
2022/04/03 10:12:18;;;;;;;0.20;0.20;;;;;;;;;;6321751;22;20212;-75
2022/04/03 10:14:45;;;;;;;0.20;0.20;;;;;;;;;;6348310;22;20222;-75
2022/04/03 10:17:13;;;;;;;0.10;0.10;;;;;;;;;;6330703;22;20218;-74
2022/04/03 10:19:39;;;;;;;0.30;0.30;;;;;;;;;;6348096;22;20175;-74
2022/04/03 10:22:08;;;;;;;0.20;0.20;;;;;;;;;;6330862;22;20210;-72
2022/04/03 10:24:36;;;;;;;0.17;0.17;;;;;;;;;;6348070;22;20195;-74
2022/04/03 10:27:05;;;;;;;1.77;1.70;;;;;;;;;;6330766;22;20525;-74
2022/04/03 10:29:32;;;;;;;0.10;0.10;;;;;;;;;;6347653;22;20217;-73
2022/04/03 10:31:59;;;;;;;0.20;0.20;;;;;;;;;;6330692;22;20410;-75
2022/04/03 10:34:28;;;;;;;0.10;0.10;;;;;;;;;;6348280;22;20177;-75
2022/04/03 10:36:54;;;;;;;0.10;0.10;;;;;;;;;;6331020;22;20210;-74
2022/04/03 10:39:23;;;;;;;0.20;0.20;;;;;;;;;;6347869;22;20189;-74
2022/04/03 10:41:54;;;;;;;0.10;0.10;;;;;;;;;;6331236;22;20212;-73
2022/04/03 10:44:22;;;;;;;0.33;0.33;;;;;;;;;;6347839;22;20227;-73
2022/04/03 10:47:19;;;;;;;0.40;0.40;;;;;;;;;;6331353;22;20281;-74
2022/04/03 10:49:49;;;;;;;0.20;0.20;;;;;;;;;;6348200;22;20179;-73
2022/04/03 10:52:26;;;;;;;0.10;0.10;;;;;;;;;;6330930;22;20211;-73
2022/04/03 10:54:53;;;;;;;0.10;0.10;;;;;;;;;;6348331;22;20405;-74
2022/04/03 10:57:35;;;;;;;0.20;0.20;;;;;;;;;;6330932;22;20218;-74
2022/04/03 11:00:22;;;;;;;0.20;0.20;;;;;;;;;;6348221;22;20180;-74
2022/04/03 11:02:55;;;;;;;0.20;0.20;;;;;;;;;;6346214;22;20192;-73
2022/04/03 11:05:40;;;;;;;0.10;0.10;;;;;;;;;;6331974;22;20164;-73
2022/04/03 11:08:20;;;;;;;0.20;0.20;;;;;;;;;;6347091;22;20302;-73
2022/04/03 11:10:48;;;;;;;0.10;0.10;;;;;;;;;;6327726;22;20212;-73
2022/04/03 11:13:15;;;;;;;0.10;0.10;;;;;;;;;;6346815;22;20183;-73
2022/04/03 11:15:44;;;;;;;0.10;0.10;;;;;;;;;;6331594;22;20276;-74
2022/04/03 11:18:28;;;;;;;0.10;0.10;;;;;;;;;;6346781;22;20177;-73
2022/04/03 11:21:12;;;;;;;0.10;0.10;;;;;;;;;;6331417;22;20365;-73
2022/04/03 11:23:41;;;;;;;0.10;0.10;;;;;;;;;;6347002;22;20201;-75
2022/04/03 11:26:08;;;;;;;0.17;0.17;;;;;;;;;;6327501;22;20225;-74
2022/04/03 11:28:35;;;;;;;0.30;0.30;;;;;;;;;;6347213;22;20195;-72
2022/04/03 11:31:01;;;;;;;0.10;0.10;;;;;;;;;;6331297;22;20252;-74
2022/04/03 11:33:28;;;;;;;0.10;0.10;;;;;;;;;;6346574;22;20174;-73
2022/04/03 11:35:55;;;;;;;0.10;0.10;;;;;;;;;;6330277;22;20223;-74
2022/04/03 11:38:22;;;;;;;0.10;0.10;;;;;;;;;;6346836;22;20255;-74
2022/04/03 11:40:49;;;;;;;0.10;0.10;;;;;;;;;;6331365;22;20230;-74
2022/04/03 11:43:18;;;;;;;0.10;0.10;;;;;;;;;;6347525;22;20178;-74
2022/04/03 11:45:55;;;;;;;0.10;0.10;;;;;;;;;;6333723;22;20220;-73
2022/04/03 11:48:23;;;;;;;0.10;0.10;;;;;;;;;;6348641;22;20362;-74
2022/04/03 11:50:51;;;;;;;0.20;0.20;;;;;;;;;;6333295;22;20209;-74
2022/04/03 11:53:21;;;;;;;0.10;0.10;;;;;;;;;;6349059;22;20235;-73
2022/04/03 11:55:51;;;;;;;0.10;0.10;;;;;;;;;;6328089;22;20206;-76
2022/04/03 11:58:44;;;;;;;0.10;0.10;;;;;;;;;;6349704;22;20179;-76
2022/04/03 12:01:12;;;;;;;0.10;0.10;;;;;;;;;;6332261;22;20256;-74
2022/04/03 12:03:38;;;;;;;0.30;0.30;;;;;;;;;;6348250;22;20244;-74
2022/04/03 12:06:14;;;;;;;0.40;0.40;;;;;;;;;;6333046;22;20293;-73
2022/04/03 12:08:43;;;;;;;0.10;0.10;;;;;;;;;;6348945;22;20165;-74
2022/04/03 12:11:16;;;;;;;0.10;0.10;;;;;;;;;;6332986;22;20216;-70
2022/04/03 12:13:44;;;;;;;0.57;0.57;;;;;;;;;;6348864;22;20388;-74
2022/04/03 12:16:15;;;;;;;0.17;0.17;;;;;;;;;;6329968;22;20208;-73
2022/04/03 12:18:48;;;;;;;0.10;0.10;;;;;;;;;;6348738;22;20403;-73
2022/04/03 12:21:20;;;;;;;0.10;0.10;;;;;;;;;;6331876;22;20209;-75
2022/04/03 12:24:06;;;;;;;0.10;0.10;;;;;;;;;;6349419;22;20208;-73
2022/04/03 12:26:33;;;;;;;0.10;0.10;;;;;;;;;;6331856;22;20271;-74
2022/04/03 12:29:00;;;;;;;0.20;0.20;;;;;;;;;;6349067;22;20192;-75
2022/04/03 12:31:27;;;;;;;0.20;0.20;;;;;;;;;;6333352;22;20230;-73
2022/04/03 12:34:04;;;;;;;0.10;0.10;;;;;;;;;;6349185;22;20184;-73
2022/04/03 12:36:35;;;;;;;0.30;0.30;;;;;;;;;;6332722;22;20588;-75
2022/04/03 12:39:02;;;;;;;0.30;0.30;;;;;;;;;;6348514;22;20192;-76
2022/04/03 12:41:28;;;;;;;0.20;0.20;;;;;;;;;;6332289;22;20209;-72
2022/04/03 12:43:56;;;;;;;0.10;0.10;;;;;;;;;;6348596;22;20201;-72
2022/04/03 12:46:25;;;;;;;0.10;0.10;;;;;;;;;;6332275;22;20221;-74
2022/04/03 12:48:52;;;;;;;0.10;0.10;;;;;;;;;;6348427;22;20178;-73
2022/04/03 12:51:18;;;;;;;0.10;0.10;;;;;;;;;;6332392;22;20217;-72
2022/04/03 12:53:49;;;;;;;0.10;0.10;;;;;;;;;;6348425;22;20198;-74
2022/04/03 12:56:16;;;;;;;0.10;0.10;;;;;;;;;;6332267;22;20224;-73
2022/04/03 12:58:43;;;;;;;0.10;0.10;;;;;;;;;;6348477;22;20170;-73
2022/04/03 13:01:15;;;;;;;0.10;0.10;;;;;;;;;;6332453;22;20305;-74
2022/04/03 13:03:45;;;;;;;0.10;0.10;;;;;;;;;;6347954;22;20184;-73
2022/04/03 13:06:13;;;;;;;1.50;1.50;;;;;;;;;;6332177;22;20209;-75
2022/04/03 13:08:41;;;;;;;0.10;0.10;;;;;;;;;;6348489;22;20362;-74
2022/04/03 13:11:07;;;;;;;0.10;0.10;;;;;;;;;;6332318;22;20232;-74
2022/04/03 13:13:35;;;;;;;0.10;0.10;;;;;;;;;;6348149;22;20421;-75
2022/04/03 13:16:01;;;;;;;0.10;0.10;;;;;;;;;;6332717;22;20416;-73
2022/04/03 13:18:28;;;;;;;0.10;0.10;;;;;;;;;;6348349;22;20352;-73
2022/04/03 13:20:56;;;;;;;0.13;0.13;;;;;;;;;;6332206;22;20411;-73
2022/04/03 13:23:23;;;;;;;0.13;0.13;;;;;;;;;;6348194;22;20206;-72
2022/04/03 13:25:50;;;;;;;0.10;0.10;;;;;;;;;;6331182;22;20209;-73
2022/04/03 13:28:17;;;;;;;0.10;0.10;;;;;;;;;;6348038;22;20196;-73
2022/04/03 13:30:44;;;;;;;0.10;0.10;;;;;;;;;;6321715;22;20217;-73
2022/04/03 13:33:11;;;;;;;0.10;0.10;;;;;;;;;;6349055;22;20389;-73
2022/04/03 13:35:38;;;;;;;0.10;0.10;;;;;;;;;;6332540;22;20208;-75
2022/04/03 13:38:06;;;;;;;0.10;0.10;;;;;;;;;;6347533;22;20182;-72
2022/04/03 13:40:33;;;;;;;0.10;0.10;;;;;;;;;;6332634;22;20232;-74
2022/04/03 13:42:59;;;;;;;0.13;0.13;;;;;;;;;;6347733;22;20181;-74
2022/04/03 13:45:56;;;;;;;0.10;0.10;;;;;;;;;;6332528;22;20279;-74
2022/04/03 13:48:12;;;;;;;0.10;0.10;;;;;;;;;;6347438;22;20184;-74
2022/04/03 13:50:45;;;;;;;0.10;0.10;;;;;;;;;;6332321;22;20298;-73
2022/04/03 13:53:12;;;;;;;0.10;0.10;;;;;;;;;;6347271;22;20178;-73
2022/04/03 13:55:39;;;;;;;0.10;0.10;;;;;;;;;;6332507;22;20401;-73
2022/04/03 13:58:05;;;;;;;0.10;0.10;;;;;;;;;;6347474;22;20379;-73
2022/04/03 14:00:32;;;;;;;0.10;0.10;;;;;;;;;;6332428;22;20215;-73
2022/04/03 14:02:58;;;;;;;0.40;0.40;;;;;;;;;;6347188;22;20180;-74
2022/04/03 14:05:25;;;;;;;0.20;0.20;;;;;;;;;;6316278;22;21754;-73
2022/04/03 14:07:53;;;;;;;0.10;0.10;;;;;;;;;;6222408;23;20184;-73
2022/04/03 14:10:21;;;;;;;0.10;0.10;;;;;;;;;;6210537;23;20230;-76
2022/04/03 14:12:48;;;;;;;0.10;0.10;;;;;;;;;;6244031;23;20230;-74
2022/04/03 14:15:14;;;;;;;0.10;0.10;;;;;;;;;;6207909;23;20180;-74
2022/04/03 14:17:41;;;;;;;0.10;0.10;;;;;;;;;;6246192;23;20555;-74
2022/04/03 14:20:09;;;;;;;0.13;0.13;;;;;;;;;;6222248;23;20190;-73
2022/04/03 14:22:36;;;;;;;0.10;0.10;;;;;;;;;;6232897;23;20214;-75
2022/04/03 14:25:03;;;;;;;0.10;0.10;;;;;;;;;;6222212;23;20199;-75
2022/04/03 14:27:31;;;;;;;0.10;0.10;;;;;;;;;;6232880;23;20215;-75
2022/04/03 14:29:58;;;;;;;0.10;0.10;;;;;;;;;;6222223;23;20195;-73
2022/04/03 14:32:24;;;;;;;0.17;0.17;;;;;;;;;;6292338;22;20208;-75
2022/04/03 14:34:50;;;;;;;0.10;0.10;;;;;;;;;;6348153;22;20523;-76
2022/04/03 14:37:17;;;;;;;0.20;0.20;;;;;;;;;;6327137;22;20219;-75
2022/04/03 14:39:44;;;;;;;0.10;0.10;;;;;;;;;;6348268;22;20192;-76
2022/04/03 14:42:10;;;;;;;0.10;0.10;;;;;;;;;;6324695;22;20271;-74
2022/04/03 14:44:38;;;;;;;0.10;0.10;;;;;;;;;;6347925;22;20196;-73
2022/04/03 14:47:07;;;;;;;0.10;0.10;;;;;;;;;;6330033;22;20234;-77